CheckWX is a tool to help pilots better visualize weather data.  It is not intended as a substitute for an official pre-flight weather briefing.

12:19:21 UTC

KTPH METAR
Tonopah Airport
Tonopah, Nevada, USA
Current

23 mins ago

KTPH 181156Z AUTO 02006KT 10SM CLR M08/M13 A2991 RMK AO2 SLP153 T10831128 11050 21083 53002 $
Observed
Feb-18 @ 11:56 UTC
Wind
  • 020° at 6 KTS
Visibility
10 SM
Flight Rules
VFR
Cloud Levels
  • Clear skies
Temperature
-8°C / 18°F
Dewpoint
-13°C / 9°F
Humidity
68%
Altimeter
29.91" Hg
Pressure
1015.3 hPa
Previous

1 hour ago

KTPH 181056Z AUTO 36008KT 10SM CLR M08/M12 A2990 RMK AO2 SLP150 T10781122 $
Observed
Feb-18 @ 10:56 UTC
Wind
  • 360° at 8 KTS
Visibility
10 SM
Flight Rules
VFR
Cloud Levels
  • Clear skies
Temperature
-8°C / 18°F
Dewpoint
-12°C / 10°F
Humidity
73%
Altimeter
29.9" Hg
Pressure
1015 hPa
Previous

2 hours ago

KTPH 180956Z AUTO 36013KT 10SM CLR M07/M12 A2990 RMK AO2 SLP150 T10721122 $
Observed
Feb-18 @ 09:56 UTC
Wind
  • 360° at 13 KTS
Visibility
10 SM
Flight Rules
VFR
Cloud Levels
  • Clear skies
Temperature
-7°C / 19°F
Dewpoint
-12°C / 10°F
Humidity
68%
Altimeter
29.9" Hg
Pressure
1015 hPa